Time;durP1;ratioP1;P1;durP2;ratioP2;P2;SDS_P1;SDS_P2;PMS_P1;PMS_P2;Temp;Humidity;BMP_temperature;BMP_pressure;BME280_temperature;BME280_humidity;BME280_pressure;Samples;Min_cycle;Max_cycle;Signal;HPM_P1;HPM_P2
2021/11/08 00:04:06;;;;;;;8.6;11.7;;;;;;;7.7;72.6;98600;;;;
2021/11/08 00:15:09;;;;;;;8.6;11.7;;;;;;;7.7;72.3;98610;;;;
2021/11/08 00:25:07;;;;;;;8.6;11.7;;;;;;;7.7;71.8;98610;;;;
2021/11/08 00:35:06;;;;;;;6.2;9.5;;;;;;;7.7;71.5;98630;;;;
2021/11/08 00:45:07;;;;;;;6.2;9.5;;;;;;;7.7;71.6;98630;;;;
2021/11/08 00:55:06;;;;;;;6.2;9.5;;;;;;;7.7;71.6;98650;;;;
2021/11/08 01:05:07;;;;;;;6.6;10.5;;;;;;;7.7;71.4;98660;;;;
2021/11/08 01:15:06;;;;;;;6.6;10.5;;;;;;;7.7;71.6;98670;;;;
2021/11/08 01:25:06;;;;;;;6.6;10.5;;;;;;;7.5;72.2;98680;;;;
2021/11/08 01:35:06;;;;;;;5.1;7.6;;;;;;;7.5;72;98680;;;;
2021/11/08 01:45:06;;;;;;;5.1;7.6;;;;;;;7.4;72.4;98690;;;;
2021/11/08 01:55:06;;;;;;;5.1;7.6;;;;;;;7.3;72.4;98700;;;;
2021/11/08 02:05:06;;;;;;;4.7;7;;;;;;;7.3;72.6;98700;;;;
2021/11/08 02:15:07;;;;;;;4.7;7;;;;;;;7.2;72.7;98710;;;;
2021/11/08 02:25:07;;;;;;;4.7;7;;;;;;;7;73.1;98710;;;;
2021/11/08 02:35:07;;;;;;;4.7;6.8;;;;;;;7.1;73.1;98710;;;;
2021/11/08 02:45:08;;;;;;;4.7;6.8;;;;;;;7.2;72.8;98710;;;;
2021/11/08 02:55:06;;;;;;;4.7;6.8;;;;;;;7.2;72.8;98720;;;;
2021/11/08 03:05:07;;;;;;;5.1;7.2;;;;;;;7.2;72.7;98730;;;;
2021/11/08 03:15:09;;;;;;;;;;;;;;;;;;;;;
2021/11/08 03:25:11;;;;;;;4.6;7.5;;;;;;;7.1;73.2;98750;;;;
2021/11/08 03:35:06;;;;;;;4.6;7.5;;;;;;;7.2;72.9;98750;;;;
2021/11/08 03:45:06;;;;;;;4.6;7.5;;;;;;;7.4;72.6;98760;;;;
2021/11/08 03:55:06;;;;;;;4.8;7.4;;;;;;;7.5;72.3;98760;;;;
2021/11/08 04:05:06;;;;;;;4.8;7.4;;;;;;;7.6;71.9;98770;;;;
2021/11/08 04:15:08;;;;;;;4.8;7.4;;;;;;;7.7;71.6;98770;;;;
2021/11/08 04:25:06;;;;;;;5;8.4;;;;;;;7.6;71.2;98760;;;;
2021/11/08 04:35:11;;;;;;;5;8.4;;;;;;;7.7;71;98760;;;;
2021/11/08 04:55:12;;;;;;;5;7.8;;;;;;;7.6;70.5;98760;;;;
2021/11/08 05:25:16;;;;;;;5.9;8.7;;;;;;;6.7;71.6;98800;;;;
2021/11/08 05:35:06;;;;;;;5.9;8.7;;;;;;;6.3;72.2;98800;;;;
2021/11/08 05:45:06;;;;;;;5.9;8.7;;;;;;;6.1;72.6;98820;;;;
2021/11/08 05:55:09;;;;;;;6.1;9.4;;;;;;;5.9;73.1;98830;;;;
2021/11/08 06:55:07;;;;;;;12.5;17.9;;;;;;;6.9;71.5;98880;;;;
2021/11/08 07:05:07;;;;;;;12.5;17.9;;;;;;;7;71.4;98900;;;;
2021/11/08 07:15:07;;;;;;;12.5;17.9;;;;;;;7.1;70.8;98900;;;;
2021/11/08 07:25:06;;;;;;;10.2;16.3;;;;;;;7.4;70.4;98920;;;;
2021/11/08 07:35:07;;;;;;;10.2;16.3;;;;;;;7.6;70;98930;;;;
2021/11/08 07:45:07;;;;;;;10.2;16.3;;;;;;;7.8;69.8;98950;;;;
2021/11/08 07:55:07;;;;;;;12.9;17.5;;;;;;;8.6;68.8;98960;;;;
2021/11/08 08:05:07;;;;;;;12.9;17.5;;;;;;;9.1;66.1;98960;;;;
2021/11/08 08:15:07;;;;;;;12.9;17.5;;;;;;;9.3;66.1;98970;;;;
2021/11/08 08:25:07;;;;;;;6.3;9.6;;;;;;;9.3;64.3;98990;;;;
2021/11/08 08:35:08;;;;;;;6.3;9.6;;;;;;;9.3;63.8;99020;;;;
2021/11/08 08:45:07;;;;;;;6.3;9.6;;;;;;;9.4;63.4;99030;;;;
2021/11/08 08:55:07;;;;;;;5.6;9.3;;;;;;;9.5;63.2;99030;;;;
2021/11/08 09:05:07;;;;;;;5.6;9.3;;;;;;;9.9;62.6;99040;;;;
2021/11/08 09:15:07;;;;;;;5.6;9.3;;;;;;;9.9;61.9;99040;;;;
2021/11/08 09:25:07;;;;;;;5.5;9.6;;;;;;;10.2;61.2;99050;;;;
2021/11/08 09:35:07;;;;;;;5.5;9.6;;;;;;;10.2;61.3;99050;;;;
2021/11/08 09:45:07;;;;;;;5.5;9.6;;;;;;;10.2;60.1;99060;;;;
2021/11/08 09:55:07;;;;;;;4.2;8;;;;;;;10.2;58.3;99050;;;;
2021/11/08 10:05:07;;;;;;;4.2;8;;;;;;;10.3;59.5;99050;;;;
2021/11/08 10:15:07;;;;;;;4.2;8;;;;;;;10.2;58.2;99060;;;;
2021/11/08 10:25:07;;;;;;;2.7;5.9;;;;;;;10.6;57.5;99050;;;;
2021/11/08 10:35:07;;;;;;;2.7;5.9;;;;;;;10.6;56;99040;;;;
2021/11/08 10:45:07;;;;;;;2.7;5.9;;;;;;;10.8;55.3;99040;;;;
2021/11/08 10:55:07;;;;;;;2.1;4.1;;;;;;;11;54.5;99030;;;;
2021/11/08 11:05:07;;;;;;;2.1;4.1;;;;;;;11;54.4;99030;;;;
2021/11/08 11:15:08;;;;;;;2.1;4.1;;;;;;;10.8;54.2;99030;;;;
2021/11/08 11:25:07;;;;;;;2.2;6.6;;;;;;;10.9;54.6;99030;;;;
2021/11/08 11:35:07;;;;;;;2.2;6.6;;;;;;;10.9;55.2;99030;;;;
2021/11/08 11:45:07;;;;;;;2.2;6.6;;;;;;;11.1;54.2;99040;;;;
2021/11/08 11:55:07;;;;;;;1.5;3.3;;;;;;;11.2;54.3;99030;;;;
2021/11/08 12:05:07;;;;;;;1.5;3.3;;;;;;;11.2;54.7;99030;;;;
2021/11/08 12:15:08;;;;;;;1.5;3.3;;;;;;;11.1;53.8;99030;;;;
2021/11/08 12:25:07;;;;;;;2.1;4.7;;;;;;;11.2;54.2;99040;;;;
2021/11/08 12:35:07;;;;;;;2.1;4.7;;;;;;;10.9;54.6;99030;;;;
2021/11/08 12:45:07;;;;;;;2.1;4.7;;;;;;;10.6;55.6;99030;;;;
2021/11/08 12:55:07;;;;;;;2.8;5.6;;;;;;;10.5;56.2;99030;;;;
2021/11/08 13:05:07;;;;;;;2.8;5.6;;;;;;;10.5;56.9;99030;;;;
2021/11/08 13:16:07;;;;;;;2.8;5.6;;;;;;;10.5;56.8;99030;;;;
2021/11/08 13:26:07;;;;;;;2.9;7.5;;;;;;;10.4;56.9;99050;;;;
2021/11/08 13:36:08;;;;;;;2.9;7.5;;;;;;;10.3;57.5;99040;;;;
2021/11/08 13:47:07;;;;;;;2.9;7.5;;;;;;;10.2;57.5;99060;;;;
2021/11/08 13:57:07;;;;;;;4.2;7.7;;;;;;;10.2;58.4;99060;;;;
2021/11/08 14:07:07;;;;;;;4.2;7.7;;;;;;;10.1;58.6;99060;;;;
2021/11/08 14:17:07;;;;;;;4.2;7.7;;;;;;;10.1;59.2;99070;;;;
2021/11/08 14:27:07;;;;;;;5.5;10.2;;;;;;;10;59.9;99070;;;;
2021/11/08 14:37:07;;;;;;;5.5;10.2;;;;;;;9.8;61;99080;;;;
2021/11/08 14:47:10;;;;;;;5.5;10.2;;;;;;;9.7;61.7;99090;;;;
2021/11/08 14:57:07;;;;;;;7.6;10.6;;;;;;;9.7;61.5;99100;;;;
2021/11/08 15:07:07;;;;;;;7.6;10.6;;;;;;;9.6;61.8;99110;;;;
2021/11/08 15:17:07;;;;;;;7.6;10.6;;;;;;;9.5;62;99110;;;;
2021/11/08 15:27:07;;;;;;;10.1;15.7;;;;;;;9.5;62.8;99130;;;;
2021/11/08 15:37:11;;;;;;;10.1;15.7;;;;;;;9.4;63.5;99130;;;;
2021/11/08 15:47:07;;;;;;;10.1;15.7;;;;;;;9.4;64;99140;;;;
2021/11/08 15:57:07;;;;;;;22.6;27.5;;;;;;;9.3;64.7;99150;;;;
2021/11/08 16:07:07;;;;;;;22.6;27.5;;;;;;;9.2;64.9;99150;;;;
2021/11/08 16:17:07;;;;;;;22.6;27.5;;;;;;;9.2;65.3;99160;;;;
2021/11/08 16:27:07;;;;;;;15.7;25.7;;;;;;;9.1;65.8;99180;;;;
2021/11/08 16:37:07;;;;;;;15.7;25.7;;;;;;;9;68.8;99200;;;;
2021/11/08 16:47:08;;;;;;;15.7;25.7;;;;;;;8.7;71.5;99210;;;;
2021/11/08 16:57:07;;;;;;;14.5;18.5;;;;;;;8.6;72.5;99210;;;;
2021/11/08 17:07:09;;;;;;;14.5;18.5;;;;;;;8.6;73.5;99220;;;;
2021/11/08 17:17:07;;;;;;;14.5;18.5;;;;;;;8.3;74.8;99230;;;;
2021/11/08 17:27:14;;;;;;;13;17.7;;;;;;;8.2;75.3;99240;;;;
2021/11/08 17:37:07;;;;;;;13;17.7;;;;;;;8.2;75.7;99250;;;;
2021/11/08 17:47:08;;;;;;;13;17.7;;;;;;;8.2;75.6;99250;;;;
2021/11/08 17:57:07;;;;;;;15.4;17.8;;;;;;;8.2;75.9;99260;;;;
2021/11/08 18:07:07;;;;;;;15.4;17.8;;;;;;;8.2;75.7;99290;;;;
2021/11/08 18:17:07;;;;;;;15.4;17.8;;;;;;;8.3;75.2;99290;;;;
2021/11/08 18:27:07;;;;;;;23.3;29.3;;;;;;;8.3;75;99300;;;;
2021/11/08 18:37:09;;;;;;;23.3;29.3;;;;;;;8.3;74.9;99300;;;;
2021/11/08 18:47:07;;;;;;;23.3;29.3;;;;;;;8.3;74.8;99310;;;;
2021/11/08 18:57:07;;;;;;;22.7;29.9;;;;;;;8.4;74.4;99300;;;;
2021/11/08 19:08:18;;;;;;;22.7;29.9;;;;;;;8.3;74.6;99320;;;;
2021/11/08 19:18:07;;;;;;;22.7;29.9;;;;;;;8.4;74.6;99330;;;;
2021/11/08 19:28:07;;;;;;;28.2;34.4;;;;;;;8.3;74.9;99340;;;;
2021/11/08 19:38:07;;;;;;;28.2;34.4;;;;;;;8.2;75.3;99350;;;;
2021/11/08 19:48:07;;;;;;;28.2;34.4;;;;;;;8.1;75.8;99360;;;;
2021/11/08 19:58:07;;;;;;;26.8;32.1;;;;;;;8.1;76;99370;;;;
2021/11/08 20:08:07;;;;;;;26.8;32.1;;;;;;;8.1;76.4;99380;;;;
2021/11/08 20:19:07;;;;;;;26.8;32.1;;;;;;;8;77;99390;;;;
2021/11/08 20:29:10;;;;;;;25.1;30;;;;;;;8;77.5;99400;;;;
2021/11/08 20:39:17;;;;;;;25.1;30;;;;;;;8.1;77.2;99400;;;;
2021/11/08 20:50:57;;;;;;;25.1;30;;;;;;;7.9;77.8;99410;;;;
2021/11/08 20:59:17;;;;;;;23.1;28.5;;;;;;;7.9;78.2;99410;;;;
2021/11/08 21:09:24;;;;;;;23.1;28.5;;;;;;;8.1;77.4;99410;;;;
2021/11/08 21:19:07;;;;;;;23.1;28.5;;;;;;;8;77.5;99420;;;;
2021/11/08 21:29:14;;;;;;;21.1;26.9;;;;;;;8;77.4;99420;;;;
2021/11/08 21:39:07;;;;;;;21.1;26.9;;;;;;;8;77.6;99420;;;;
2021/11/08 21:49:07;;;;;;;21.1;26.9;;;;;;;8;77.7;99430;;;;
2021/11/08 21:59:07;;;;;;;24.1;29.8;;;;;;;8;77.3;99440;;;;
2021/11/08 22:09:07;;;;;;;24.1;29.8;;;;;;;8;77.1;99440;;;;
2021/11/08 22:19:09;;;;;;;24.1;29.8;;;;;;;8;77.1;99450;;;;
2021/11/08 22:29:07;;;;;;;25.1;30.2;;;;;;;8;77.3;99450;;;;
2021/11/08 22:39:07;;;;;;;25.1;30.2;;;;;;;7.9;78.2;99450;;;;
2021/11/08 22:49:07;;;;;;;25.1;30.2;;;;;;;7.9;78.7;99470;;;;
2021/11/08 22:59:07;;;;;;;26.9;31.7;;;;;;;7.9;78.8;99470;;;;
2021/11/08 23:09:07;;;;;;;26.9;31.7;;;;;;;8;78.4;99470;;;;
2021/11/08 23:19:07;;;;;;;26.9;31.7;;;;;;;7.9;79.2;99480;;;;
2021/11/08 23:29:07;;;;;;;28;34.1;;;;;;;7.8;79.6;99480;;;;
2021/11/08 23:39:07;;;;;;;28;34.1;;;;;;;7.9;79.8;99480;;;;
2021/11/08 23:49:07;;;;;;;28;34.1;;;;;;;7.8;80.2;99480;;;;
2021/11/08 23:59:07;;;;;;;26.7;31;;;;;;;7.8;80.5;99490;;;;
